Three Lakes, Wisconsin
Current Conditions -  °F | °C
As of 8:50 PM on Wednesday 26 Nov 2014 (Local Time) from KEGV Reporting Station
Light Snow Light Snow  
Wind Chill: 10°   Ceiling: 1500
Heat Index: 19°   Visibility: 10mi
Dew Point: 15°   Wind: 7mph
Humidity: 83%   Direction: 340°NNW
Pressure: 30.14"   Gusts: NA
Location:  45.8°N, 89.16°W
Report Text: KEGV 270250Z AUTO 34006KT 10SM -SN OVC015 M07/M09 A3014 RMK AO2 T10701095
Loading
Personal Weather Stations






























Interactive Weather Map New forecast layout! Learn more

10-Day Weather Forecast

Advertisements
Track Severe Weather on mobile